createdAt,value
2023-05-16T00:00:10.386Z,98748.19
2023-05-16T00:02:44.289Z,98739.34
2023-05-16T00:05:17.868Z,98755.38
2023-05-16T00:07:51.158Z,98745.94
2023-05-16T00:10:26.469Z,98745.06
2023-05-16T00:13:02.139Z,98751.00
2023-05-16T00:15:35.934Z,98749.59
2023-05-16T00:18:10.063Z,98756.75
2023-05-16T00:20:43.285Z,98751.53
2023-05-16T00:23:17.215Z,98752.72
2023-05-16T00:25:51.741Z,98746.78
2023-05-16T00:28:25.118Z,98755.16
2023-05-16T00:30:58.269Z,98759.81
2023-05-16T00:33:31.344Z,98762.22
2023-05-16T00:36:05.004Z,98756.72
2023-05-16T00:38:38.358Z,98761.47
2023-05-16T00:41:13.543Z,98764.16
2023-05-16T00:43:47.048Z,98760.78
2023-05-16T00:46:20.299Z,98764.91
2023-05-16T00:48:53.867Z,98753.38
2023-05-16T00:51:27.245Z,98755.97
2023-05-16T00:54:00.764Z,98749.38
2023-05-16T00:56:36.182Z,98758.34
2023-05-16T00:59:09.427Z,98753.72
2023-05-16T01:01:47.506Z,98745.75
2023-05-16T01:04:21.815Z,98753.13
2023-05-16T01:06:56.264Z,98748.75
2023-05-16T01:09:29.848Z,98757.25
2023-05-16T01:12:12.770Z,98755.16
2023-05-16T01:14:53.587Z,98765.69
2023-05-16T01:17:37.535Z,98766.63
2023-05-16T01:20:17.804Z,98770.00
2023-05-16T01:23:02.251Z,98765.91
2023-05-16T01:25:47.651Z,98761.81
2023-05-16T01:28:23.054Z,98764.69
2023-05-16T01:30:56.881Z,98761.78
2023-05-16T01:33:30.164Z,98767.81
2023-05-16T01:36:13.534Z,98763.38
2023-05-16T01:38:57.278Z,98768.09
2023-05-16T01:41:44.851Z,98755.59
2023-05-16T01:44:26.683Z,98751.28
2023-05-16T01:47:03.102Z,98751.19
2023-05-16T01:49:40.997Z,98743.59
2023-05-16T01:52:18.963Z,98744.28
2023-05-16T01:54:54.897Z,98742.91
2023-05-16T01:57:30.521Z,98746.28
2023-05-16T02:00:05.839Z,98748.41
2023-05-16T02:02:48.208Z,98756.22
2023-05-16T02:05:23.406Z,98755.50
2023-05-16T02:07:56.897Z,98747.66
2023-05-16T02:10:30.196Z,98755.25
2023-05-16T02:13:03.637Z,98755.25
2023-05-16T02:15:38.334Z,98754.19
2023-05-16T02:18:11.579Z,98746.69
2023-05-16T02:20:44.824Z,98749.13
2023-05-16T02:23:18.462Z,98758.97
2023-05-16T02:25:51.616Z,98753.22
2023-05-16T02:28:24.963Z,98754.34
2023-05-16T02:31:00.313Z,98753.13
2023-05-16T02:33:33.568Z,98764.34
2023-05-16T02:36:06.940Z,98766.78
2023-05-16T02:38:40.249Z,98751.13
2023-05-16T02:41:13.687Z,98758.78
2023-05-16T02:43:47.245Z,98752.78
2023-05-16T02:46:27.671Z,98757.69
2023-05-16T02:49:01.719Z,98758.25
2023-05-16T02:51:34.940Z,98764.53
2023-05-16T02:54:10.058Z,98764.34
2023-05-16T02:56:43.168Z,98770.97
2023-05-16T02:59:16.544Z,98762.22
2023-05-16T03:01:51.616Z,98759.06
2023-05-16T03:04:24.862Z,98759.31
2023-05-16T03:06:58.328Z,98758.69
2023-05-16T03:09:34.480Z,98762.09
2023-05-16T03:12:10.931Z,98766.41
2023-05-16T03:14:44.406Z,98766.13
2023-05-16T03:17:19.069Z,98766.47
2023-05-16T03:19:52.969Z,98765.69
2023-05-16T03:22:26.202Z,98764.88
2023-05-16T03:24:59.421Z,98771.19
2023-05-16T03:27:37.252Z,98774.41
2023-05-16T03:30:11.252Z,98779.63
2023-05-16T03:32:46.872Z,98775.91
2023-05-16T03:35:22.677Z,98780.22
2023-05-16T03:37:56.476Z,98778.81
2023-05-16T03:40:30.122Z,98784.44
2023-05-16T03:43:06.028Z,98784.28
2023-05-16T03:45:39.356Z,98791.50
2023-05-16T03:48:27.038Z,98794.00
2023-05-16T03:51:04.321Z,98789.69
2023-05-16T03:53:39.333Z,98800.72
2023-05-16T03:56:14.935Z,98805.00
2023-05-16T03:58:48.107Z,98795.94
2023-05-16T04:01:21.285Z,98800.56
2023-05-16T04:03:58.330Z,98797.84
2023-05-16T04:06:36.602Z,98806.28
2023-05-16T04:09:10.410Z,98800.47
2023-05-16T04:11:50.031Z,98806.22
2023-05-16T04:14:23.546Z,98812.13
2023-05-16T04:16:56.934Z,98804.31
2023-05-16T04:19:31.513Z,98803.69
2023-05-16T04:22:04.811Z,98799.31
2023-05-16T04:24:37.912Z,98802.38
2023-05-16T04:27:11.160Z,98803.88
2023-05-16T04:29:45.420Z,98809.97
2023-05-16T04:32:18.619Z,98807.28
2023-05-16T04:34:54.386Z,98802.63
2023-05-16T04:37:27.783Z,98811.28
2023-05-16T04:40:01.000Z,98819.47
2023-05-16T04:42:35.012Z,98822.28
2023-05-16T04:46:18.495Z,98827.94
2023-05-16T04:56:44.074Z,98815.19
2023-05-16T04:59:45.328Z,98829.19
2023-05-16T05:02:28.304Z,98836.66
2023-05-16T05:05:02.590Z,98836.31
2023-05-16T05:07:35.702Z,98848.09
2023-05-16T05:10:09.460Z,98849.66
2023-05-16T05:12:44.082Z,98844.69
2023-05-16T05:15:17.703Z,98849.56
2023-05-16T05:17:50.954Z,98851.28
2023-05-16T05:20:24.248Z,98859.22
2023-05-16T05:22:57.795Z,98857.81
2023-05-16T05:25:36.340Z,98863.06
2023-05-16T05:28:12.255Z,98867.69
2023-05-16T05:30:46.998Z,98876.03
2023-05-16T05:33:20.872Z,98875.78
2023-05-16T05:35:54.600Z,98879.78
2023-05-16T05:38:27.752Z,98873.03
2023-05-16T05:41:03.501Z,98871.06
2023-05-16T05:43:38.653Z,98869.88
2023-05-16T05:46:11.818Z,98864.25
2023-05-16T05:48:44.985Z,98864.25
2023-05-16T05:51:18.167Z,98868.66
2023-05-16T05:53:52.411Z,98866.28
2023-05-16T05:56:28.154Z,98868.53
2023-05-16T05:59:02.653Z,98860.34
2023-05-16T06:01:35.917Z,98854.47
2023-05-16T06:04:10.601Z,98855.50
2023-05-16T06:06:45.845Z,98857.09
2023-05-16T06:09:19.151Z,98856.66
2023-05-16T06:11:55.643Z,98862.16
2023-05-16T06:14:30.099Z,98865.41
2023-05-16T06:17:03.461Z,98870.91
2023-05-16T06:19:36.954Z,98876.31
2023-05-16T06:22:10.541Z,98882.47
2023-05-16T06:24:43.739Z,98880.66
2023-05-16T06:27:17.201Z,98884.75
2023-05-16T06:29:51.684Z,98895.50
2023-05-16T06:32:25.407Z,98889.56
2023-05-16T06:34:58.524Z,98891.66
2023-05-16T06:37:31.941Z,98906.78
2023-05-16T06:40:05.716Z,98899.06
2023-05-16T06:42:40.035Z,98908.59
2023-05-16T06:45:15.364Z,98909.47
2023-05-16T06:47:48.576Z,98906.69
2023-05-16T06:50:21.596Z,98902.97
2023-05-16T06:52:55.362Z,98909.78
2023-05-16T06:55:28.598Z,98907.84
2023-05-16T06:58:01.754Z,98917.38
2023-05-16T07:00:36.095Z,98912.19
2023-05-16T07:03:09.380Z,98913.25
2023-05-16T07:05:43.108Z,98923.66
2023-05-16T07:08:16.238Z,98929.69
2023-05-16T07:10:49.115Z,98927.75
2023-05-16T07:13:22.474Z,98930.66
2023-05-16T07:15:56.883Z,98933.03
2023-05-16T07:18:30.020Z,98929.69
2023-05-16T07:21:03.210Z,98935.41
2023-05-16T07:23:36.385Z,98923.19
2023-05-16T07:26:09.433Z,98928.25
2023-05-16T07:28:43.057Z,98924.47
2023-05-16T07:31:18.398Z,98922.25
2023-05-16T07:33:51.420Z,98928.75
2023-05-16T07:36:24.651Z,98929.53
2023-05-16T07:38:57.573Z,98927.31
2023-05-16T07:41:30.532Z,98930.53
2023-05-16T07:44:03.546Z,98929.19
2023-05-16T07:46:38.189Z,98940.53
2023-05-16T07:49:11.520Z,98940.31
2023-05-16T07:51:44.411Z,98944.69
2023-05-16T07:54:17.723Z,98950.41
2023-05-16T07:56:51.750Z,98955.09
2023-05-16T07:59:25.283Z,98959.69
2023-05-16T08:01:59.991Z,98957.25
2023-05-16T08:04:32.915Z,98955.75
2023-05-16T08:07:06.305Z,98960.28
2023-05-16T08:09:39.414Z,98961.84
2023-05-16T08:12:13.846Z,98967.66
2023-05-16T08:14:46.784Z,98968.66
2023-05-16T08:17:21.114Z,98976.63
2023-05-16T08:19:54.307Z,98985.94
2023-05-16T08:22:27.186Z,98986.81
2023-05-16T08:25:00.757Z,98993.56
2023-05-16T08:27:33.799Z,98987.59
2023-05-16T08:30:08.782Z,98987.72
2023-05-16T08:32:43.820Z,98986.81
2023-05-16T08:35:17.071Z,98987.63
2023-05-16T08:37:50.453Z,98988.63
2023-05-16T08:40:26.939Z,98985.59
2023-05-16T08:42:59.971Z,98984.94
2023-05-16T08:45:33.021Z,98986.19
2023-05-16T08:48:10.342Z,98989.78
2023-05-16T08:50:44.124Z,98988.13
2023-05-16T08:53:24.705Z,99000.13
2023-05-16T08:56:00.460Z,99002.66
2023-05-16T08:58:33.583Z,99008.56
2023-05-16T09:01:09.039Z,99010.16
2023-05-16T09:03:44.565Z,99009.13
2023-05-16T09:06:17.944Z,99018.09
2023-05-16T09:08:50.853Z,99013.06
2023-05-16T09:11:24.174Z,99013.63
2023-05-16T09:13:57.151Z,99014.84
2023-05-16T09:16:30.101Z,99015.97
2023-05-16T09:19:04.948Z,99010.03
2023-05-16T09:21:38.015Z,99011.88
2023-05-16T09:24:11.115Z,99017.84
2023-05-16T09:26:46.094Z,99017.84
2023-05-16T09:29:19.705Z,99015.56
2023-05-16T09:31:52.925Z,99015.91
2023-05-16T09:34:27.171Z,99015.94
2023-05-16T09:37:00.641Z,99022.47
2023-05-16T09:39:33.444Z,99024.81
2023-05-16T09:42:06.864Z,99038.03
2023-05-16T09:44:39.846Z,99034.91
2023-05-16T09:47:15.206Z,99030.41
2023-05-16T09:49:53.787Z,99027.56
2023-05-16T09:52:28.347Z,99026.66
2023-05-16T09:55:05.189Z,99036.38
2023-05-16T09:57:40.534Z,99032.19
2023-05-16T10:00:14.390Z,99023.97
2023-05-16T10:02:47.694Z,99023.66
2023-05-16T10:05:22.336Z,99026.41
2023-05-16T10:07:57.392Z,99028.28
2023-05-16T10:10:31.669Z,99030.50
2023-05-16T10:13:08.605Z,99018.81
2023-05-16T10:15:42.577Z,99015.34
2023-05-16T10:18:18.599Z,99013.44
2023-05-16T10:20:56.360Z,99018.03
2023-05-16T10:23:29.670Z,99019.75
2023-05-16T10:26:07.362Z,99020.41
2023-05-16T10:28:41.821Z,99022.31
2023-05-16T10:31:15.705Z,99033.63
2023-05-16T10:33:48.889Z,99019.88
2023-05-16T10:36:23.949Z,99027.22
2023-05-16T10:38:57.747Z,99026.41
2023-05-16T10:41:31.143Z,99028.03
2023-05-16T10:44:05.139Z,99036.19
2023-05-16T10:46:39.859Z,99031.63
2023-05-16T10:49:23.895Z,99032.06
2023-05-16T10:52:09.649Z,99022.41
2023-05-16T10:54:44.245Z,99026.41
2023-05-16T10:57:20.879Z,99029.38
2023-05-16T10:59:54.055Z,99028.41
2023-05-16T11:02:29.551Z,99029.47
2023-05-16T11:05:03.898Z,99033.34
2023-05-16T11:07:38.641Z,99041.25
2023-05-16T11:10:16.124Z,99038.63
2023-05-16T11:12:50.989Z,99046.47
2023-05-16T11:15:29.024Z,99042.63
2023-05-16T11:18:11.115Z,99044.38
2023-05-16T11:20:44.293Z,99047.09
2023-05-16T11:23:26.425Z,99048.09
2023-05-16T11:26:01.410Z,99058.03
2023-05-16T11:28:34.348Z,99052.22
2023-05-16T11:31:08.648Z,99048.72
2023-05-16T11:33:42.028Z,99053.69
2023-05-16T11:36:16.611Z,99054.50
2023-05-16T11:38:51.115Z,99041.34
2023-05-16T11:41:24.366Z,99046.38
2023-05-16T11:43:57.191Z,99057.31
2023-05-16T11:46:30.173Z,99057.44
2023-05-16T11:49:04.768Z,99063.44
2023-05-16T11:51:39.297Z,99057.44
2023-05-16T11:54:14.666Z,99068.94
2023-05-16T11:56:48.080Z,99074.03
2023-05-16T11:59:21.719Z,99070.53
2023-05-16T12:01:54.545Z,99074.88
2023-05-16T12:04:27.522Z,99072.59
2023-05-16T12:07:02.612Z,99064.94
2023-05-16T12:09:36.959Z,99056.31
2023-05-16T12:12:11.179Z,99055.94
2023-05-16T12:14:45.301Z,99070.53
2023-05-16T12:17:18.704Z,99071.88
2023-05-16T12:19:52.353Z,99067.06
2023-05-16T12:22:27.028Z,99069.09
2023-05-16T12:25:01.875Z,99074.81
2023-05-16T12:27:35.233Z,99083.03
2023-05-16T12:30:10.913Z,99076.19
2023-05-16T12:32:44.164Z,99081.84
2023-05-16T12:35:19.701Z,99090.56
2023-05-16T12:37:53.836Z,99083.25
2023-05-16T12:40:42.063Z,99088.44
2023-05-16T12:43:35.851Z,99090.34
2023-05-16T12:46:26.704Z,99097.97
2023-05-16T12:49:47.328Z,99098.41
2023-05-16T12:53:02.687Z,99098.94
2023-05-16T12:56:03.751Z,99099.97
2023-05-16T12:58:57.580Z,99104.97
2023-05-16T13:04:26.086Z,99101.72
2023-05-16T13:07:26.407Z,99106.88
2023-05-16T13:10:42.725Z,99111.13
2023-05-16T13:14:22.477Z,99101.53
2023-05-16T13:18:10.296Z,99096.66
2023-05-16T13:21:44.608Z,99097.38
2023-05-16T13:25:04.014Z,99093.22
2023-05-16T13:28:06.958Z,99097.78
2023-05-16T13:31:11.007Z,99091.88
2023-05-16T13:34:45.945Z,99105.16
2023-05-16T13:37:19.016Z,99108.03
2023-05-16T13:39:54.693Z,99113.94
2023-05-16T13:42:27.593Z,99104.38
2023-05-16T13:45:00.479Z,99106.38
2023-05-16T13:47:33.835Z,99102.50
2023-05-16T13:50:10.316Z,99110.34
2023-05-16T13:52:43.991Z,99111.69
2023-05-16T13:55:18.821Z,99107.41
2023-05-16T13:57:51.890Z,99100.97
2023-05-16T14:00:42.543Z,99106.19
2023-05-16T14:03:16.868Z,99103.97
2023-05-16T14:05:50.209Z,99113.38
2023-05-16T14:08:25.584Z,99116.31
2023-05-16T14:11:00.579Z,99124.25
2023-05-16T14:13:33.561Z,99124.13
2023-05-16T14:16:07.435Z,99121.00
2023-05-16T14:18:40.684Z,99127.31
2023-05-16T14:21:14.009Z,99126.38
2023-05-16T14:23:47.174Z,99127.72
2023-05-16T14:26:25.197Z,99130.13
2023-05-16T14:28:58.060Z,99132.50
2023-05-16T14:31:31.064Z,99128.53
2023-05-16T14:34:04.192Z,99128.41
2023-05-16T14:36:37.166Z,99125.56
2023-05-16T14:39:10.360Z,99128.84
2023-05-16T14:41:44.643Z,99130.13
2023-05-16T14:44:17.723Z,99128.25
2023-05-16T14:46:50.628Z,99130.75
2023-05-16T14:49:23.755Z,99131.34
2023-05-16T14:51:56.756Z,99132.72
2023-05-16T14:54:29.556Z,99132.91
2023-05-16T14:57:05.017Z,99131.66
2023-05-16T14:59:38.030Z,99129.06
2023-05-16T15:02:10.904Z,99142.56
2023-05-16T15:04:44.009Z,99144.75
2023-05-16T15:07:17.070Z,99140.44
2023-05-16T15:09:49.947Z,99139.31
2023-05-16T15:12:24.781Z,99137.41
2023-05-16T15:14:57.560Z,99134.47
2023-05-16T15:17:30.399Z,99145.59
2023-05-16T15:20:04.014Z,99145.94
2023-05-16T15:22:37.169Z,99147.47
2023-05-16T15:25:10.799Z,99138.72
2023-05-16T15:27:45.505Z,99147.25
2023-05-16T15:30:18.397Z,99142.97
2023-05-16T15:32:51.691Z,99139.38
2023-05-16T15:35:24.559Z,99142.88
2023-05-16T15:37:59.809Z,99141.63
2023-05-16T15:40:32.779Z,99151.34
2023-05-16T15:43:07.118Z,99139.50
2023-05-16T15:45:47.134Z,99157.56
2023-05-16T15:48:20.567Z,99143.13
2023-05-16T15:50:53.434Z,99154.03
2023-05-16T15:53:26.433Z,99152.66
2023-05-16T15:55:59.314Z,99154.56
2023-05-16T15:58:33.496Z,99153.69
2023-05-16T16:01:06.324Z,99153.84
2023-05-16T16:03:39.310Z,99158.38
2023-05-16T16:06:12.286Z,99159.13
2023-05-16T16:08:45.190Z,99152.81
2023-05-16T16:11:18.041Z,99159.53
2023-05-16T16:13:52.483Z,99161.56
2023-05-16T16:16:25.391Z,99157.75
2023-05-16T16:18:58.480Z,99154.38
2023-05-16T16:21:31.443Z,99153.97
2023-05-16T16:24:04.901Z,99163.28
2023-05-16T16:26:37.946Z,99159.97
2023-05-16T16:29:14.554Z,99157.31
2023-05-16T16:31:50.286Z,99156.69
2023-05-16T16:34:23.533Z,99156.66
2023-05-16T16:36:56.473Z,99162.03
2023-05-16T16:39:32.754Z,99154.59
2023-05-16T16:42:08.292Z,99162.56
2023-05-16T16:44:43.191Z,99161.31
2023-05-16T16:47:24.893Z,99164.34
2023-05-16T16:49:58.279Z,99169.94
2023-05-16T16:52:33.653Z,99169.56
2023-05-16T16:55:17.296Z,99170.13
2023-05-16T16:57:58.291Z,99163.28
2023-05-16T17:00:33.105Z,99166.91
2023-05-16T17:03:06.490Z,99174.44
2023-05-16T17:05:39.444Z,99170.78
2023-05-16T17:08:12.538Z,99175.28
2023-05-16T17:10:45.439Z,99178.38
2023-05-16T17:13:18.657Z,99178.41
2023-05-16T17:15:52.883Z,99184.34
2023-05-16T17:18:25.735Z,99183.34
2023-05-16T17:20:58.708Z,99189.09
2023-05-16T17:23:32.784Z,99198.66
2023-05-16T17:26:05.609Z,99200.41
2023-05-16T17:28:38.491Z,99212.38
2023-05-16T17:31:12.747Z,99210.44
2023-05-16T17:33:45.599Z,99212.56
2023-05-16T17:36:18.464Z,99213.25
2023-05-16T17:38:51.375Z,99217.97
2023-05-16T17:41:24.365Z,99207.53
2023-05-16T17:43:57.283Z,99217.03
2023-05-16T17:46:31.711Z,99215.94
2023-05-16T17:49:04.704Z,99218.59
2023-05-16T17:51:48.516Z,99220.06
2023-05-16T17:54:22.654Z,99228.78
2023-05-16T17:56:56.056Z,99231.25
2023-05-16T17:59:30.097Z,99239.47
2023-05-16T18:02:04.628Z,99233.16
2023-05-16T18:04:38.234Z,99237.91
2023-05-16T18:07:11.530Z,99245.75
2023-05-16T18:09:45.379Z,99252.16
2023-05-16T18:12:38.753Z,99253.75
2023-05-16T18:15:23.704Z,99258.78
2023-05-16T18:17:58.348Z,99265.50
2023-05-16T18:20:31.689Z,99263.19
2023-05-16T18:23:04.990Z,99272.56
2023-05-16T18:25:38.045Z,99266.03
2023-05-16T18:28:21.594Z,99278.38
2023-05-16T18:31:04.865Z,99273.56
2023-05-16T18:33:55.342Z,99276.91
2023-05-16T18:36:28.731Z,99286.16
2023-05-16T18:39:01.524Z,99285.84
2023-05-16T18:41:34.550Z,99294.22
2023-05-16T18:44:07.807Z,99292.94
2023-05-16T18:46:40.577Z,99299.53
2023-05-16T18:49:15.152Z,99301.66
2023-05-16T18:51:48.051Z,99305.59
2023-05-16T18:54:22.584Z,99305.59
2023-05-16T18:56:56.173Z,99298.31
2023-05-16T18:59:29.258Z,99306.53
2023-05-16T19:02:02.271Z,99308.34
2023-05-16T19:04:36.747Z,99307.97
2023-05-16T19:07:09.896Z,99316.72
2023-05-16T19:09:43.178Z,99323.41
2023-05-16T19:12:16.252Z,99327.25
2023-05-16T19:14:49.486Z,99327.00
2023-05-16T19:17:22.596Z,99321.88
2023-05-16T19:19:56.849Z,99327.59
2023-05-16T19:22:29.982Z,99329.38
2023-05-16T19:25:03.306Z,99329.91
2023-05-16T19:27:36.682Z,99325.47
2023-05-16T19:30:10.604Z,99325.38
2023-05-16T19:32:43.517Z,99337.78
2023-05-16T19:35:18.439Z,99334.75
2023-05-16T19:37:51.372Z,99344.78
2023-05-16T19:40:24.302Z,99340.25
2023-05-16T19:42:57.163Z,99347.81
2023-05-16T19:45:30.275Z,99352.47
2023-05-16T19:48:03.739Z,99354.44
2023-05-16T19:50:38.210Z,99359.78
2023-05-16T19:53:11.098Z,99364.22
2023-05-16T19:55:44.037Z,99364.44
2023-05-16T19:58:16.995Z,99367.56
2023-05-16T20:00:50.892Z,99360.41
2023-05-16T20:03:23.998Z,99377.31
2023-05-16T20:05:58.822Z,99371.47
2023-05-16T20:08:31.968Z,99372.06
2023-05-16T20:11:05.747Z,99374.91
2023-05-16T20:13:39.057Z,99378.06
2023-05-16T20:16:12.455Z,99381.31
2023-05-16T20:18:46.944Z,99379.50
2023-05-16T20:21:24.076Z,99380.28
2023-05-16T20:23:56.945Z,99376.63
2023-05-16T20:26:30.117Z,99383.88
2023-05-16T20:29:03.743Z,99390.03
2023-05-16T20:31:36.725Z,99387.22
2023-05-16T20:34:09.670Z,99392.16
2023-05-16T20:36:44.034Z,99396.56
2023-05-16T20:39:16.951Z,99401.25
2023-05-16T20:41:49.806Z,99397.97
2023-05-16T20:44:22.705Z,99402.38
2023-05-16T20:46:56.302Z,99406.41
2023-05-16T20:49:29.412Z,99410.34
2023-05-16T20:52:03.703Z,99412.78
2023-05-16T20:54:36.594Z,99408.88
2023-05-16T20:57:09.507Z,99412.84
2023-05-16T20:59:43.028Z,99403.75
2023-05-16T21:02:16.325Z,99416.53
2023-05-16T21:04:49.139Z,99413.31
2023-05-16T21:07:25.468Z,99421.66
2023-05-16T21:09:58.737Z,99416.13
2023-05-16T21:12:33.069Z,99420.13
2023-05-16T21:15:07.564Z,99416.56
2023-05-16T21:17:42.269Z,99422.50
2023-05-16T21:20:16.024Z,99426.47
2023-05-16T21:22:50.667Z,99424.91
2023-05-16T21:25:25.502Z,99428.06
2023-05-16T21:28:00.219Z,99435.22
2023-05-16T21:30:34.091Z,99433.59
2023-05-16T21:33:12.121Z,99428.06
2023-05-16T21:35:45.911Z,99435.72
2023-05-16T21:38:21.473Z,99432.88
2023-05-16T21:40:54.750Z,99432.81
2023-05-16T21:43:28.952Z,99434.09
2023-05-16T21:46:02.182Z,99439.66
2023-05-16T21:48:39.774Z,99446.06
2023-05-16T21:51:14.084Z,99453.19
2023-05-16T21:53:48.667Z,99446.03
2023-05-16T21:56:22.200Z,99448.84
2023-05-16T21:58:58.986Z,99454.84
2023-05-16T22:01:33.209Z,99454.06
2023-05-16T22:04:07.004Z,99456.41
2023-05-16T22:06:40.710Z,99462.03
2023-05-16T22:09:16.081Z,99461.59
2023-05-16T22:11:50.676Z,99456.91
2023-05-16T22:14:24.000Z,99451.00
2023-05-16T22:16:58.444Z,99450.19
2023-05-16T22:19:31.987Z,99458.16
2023-05-16T22:22:07.912Z,99458.16
2023-05-16T22:24:42.574Z,99452.25
2023-05-16T22:27:15.896Z,99446.69
2023-05-16T22:29:49.921Z,99454.63
2023-05-16T22:32:27.990Z,99456.22
2023-05-16T22:35:01.398Z,99457.00
2023-05-16T22:37:35.073Z,99457.00
2023-05-16T22:40:14.838Z,99454.63
2023-05-16T22:42:47.968Z,99462.59
2023-05-16T22:45:25.858Z,99459.41
2023-05-16T22:47:59.766Z,99462.56
2023-05-16T22:50:33.149Z,99461.38
2023-05-16T22:53:06.271Z,99465.34
2023-05-16T22:55:42.112Z,99470.50
2023-05-16T22:58:15.132Z,99469.69
2023-05-16T23:00:51.384Z,99474.03
2023-05-16T23:03:28.203Z,99478.81
2023-05-16T23:06:01.826Z,99476.84
2023-05-16T23:08:36.067Z,99483.56
2023-05-16T23:11:12.199Z,99476.84
2023-05-16T23:13:45.943Z,99474.84
2023-05-16T23:16:19.177Z,99487.47
2023-05-16T23:18:53.948Z,99492.25
2023-05-16T23:21:29.252Z,99501.31
2023-05-16T23:24:02.350Z,99498.53
2023-05-16T23:26:40.851Z,99501.09
2023-05-16T23:29:15.468Z,99505.91
2023-05-16T23:31:49.508Z,99513.28
2023-05-16T23:34:22.680Z,99516.09
2023-05-16T23:36:55.615Z,99517.56
2023-05-16T23:39:30.028Z,99525.53
2023-05-16T23:42:05.145Z,99524.34
2023-05-16T23:44:40.340Z,99526.25
2023-05-16T23:47:13.318Z,99529.19
2023-05-16T23:49:46.204Z,99529.47
2023-05-16T23:52:19.832Z,99533.16
2023-05-16T23:54:54.070Z,99538.63
2023-05-16T23:57:28.722Z,99527.97
